Nearby METAR Reports

 

KMTN - Baltimore/Martin, Maryland, USA
Distance from station: SSE 8mi, 13km
Updated: Mon, 06-Jul-2015 6:45am EDT
Mist, Overcast
Mist, Overcast
 Wind from calm
Wind: Calm
Temperature: 73°F , 23°C
Dew Point: 73°F , 23°C
Humidity: 100%
Barometer: 30.14 inHg , 1020.7 hPa
Summary: Mist
Clouds: Overcast
Visibility: 3 miles , 5 km
Cloud details: Partly cloudy 2600 ft
Overcast 4400 ft
2015/07/06 10:45 KMTN 061045Z 00000KT 3SM BR SCT026 OVC044 23/23 A3014
KDMH - Baltimore/Dwntwn, Maryland, USA
Distance from station: SW 12mi, 19km
Updated: Mon, 06-Jul-2015 6:54am EDT

 
Temperature: 75°F , 24°C
Dew Point: 72°F , 22°C
Humidity: 89%
Barometer: 30.12 inHg , 1020 hPa
2015/07/06 10:54 KDMH 061054Z AUTO 24/22 A3012 RMK AO1 SLP200 T02390222
 
KBWI - Balto/Wash Intl, Maryland, USA
Distance from station: SSW 20mi, 33km
Updated: Mon, 06-Jul-2015 6:54am EDT
Mist, Overcast
Mist, Overcast
 Wind from E
Wind: E 3 mph , 6 km/h
Temperature: 73°F , 23°C
Dew Point: 72°F , 22°C
Humidity: 94%
Barometer: 30.11 inHg , 1019.6 hPa
Summary: Mist
Clouds: Overcast
Visibility: 6 miles , 10 km
Cloud details: Few Clouds 1000 ft
Partly cloudy 3500 ft
Mostly cloudy 8000 ft
Overcast 15000 ft
2015/07/06 10:54 KBWI 061054Z 09003KT 6SM BR FEW010 SCT035 BKN080 OVC150 23/22 A3011 RMK AO2 SLP196 T02280217
KDMW - Carroll Cnty, Maryland, USA
Distance from station: WNW 30mi, 48km
Updated: Mon, 06-Jul-2015 7:10am EDT

 Wind from SE
Wind: SE 8 mph , 13 km/h
Temperature: 72°F , 22°C
Barometer: 30.14 inHg , 1020.7 hPa
2015/07/06 11:10 KDMW 061110Z AUTO 13007KT 22/ A3014 RMK AO2 PWINO
 
KNAK - Annapolis/Naval, Maryland, USA
Distance from station: S 30mi, 48km
Updated: Mon, 06-Jul-2015 6:54am EDT
Clear
Clear
 Wind from SE
Wind: SE 10 mph , 17 km/h
Temperature: 75°F , 24°C
Dew Point: 72°F , 22°C
Humidity: 89%
Barometer: 30.11 inHg , 1019.6 hPa
Clouds: Clear
Visibility: 8 miles , 13 km
2015/07/06 10:54 KNAK 061054Z AUTO 13009KT 8SM CLR 24/22 A3011 RMK AO2 RAB04E37 SLP199 P0001 T02390217
KW29 - Stevensville, Maryland, USA
Distance from station: SSE 31mi, 50km
Updated: Mon, 06-Jul-2015 6:51am EDT
Light rain
Light rain
 Wind from ESE
Wind: ESE 6 mph , 9 km/h
Temperature: 73°F , 23°C
Dew Point: 70°F , 21°C
Humidity: 89%
Barometer: 30.12 inHg , 1020 hPa
Summary: Light rain
Visibility: 10 miles , 16 km
2015/07/06 10:51 KW29 061051Z AUTO 12005KT 10SM -RA 23/21 A3012 RMK AO1
 
KCGS - College Park, Maryland, USA
Distance from station: SW 38mi, 61km
Updated: Mon, 06-Jul-2015 7:05am EDT
Overcast
Overcast
 Wind from calm
Wind: Calm
Temperature: 73°F , 23°C
Dew Point: 73°F , 23°C
Humidity: 100%
Barometer: 30.11 inHg , 1019.6 hPa
Clouds: Overcast
Visibility: 5 miles , 8 km
Cloud details: Partly cloudy 600 ft
Mostly cloudy 3800 ft
Overcast 8000 ft
2015/07/06 11:05 KCGS 061105Z AUTO 00000KT 5SM SCT006 BKN038 OVC080 23/23 A3011 RMK AO1
KGAI - Gaithersburg, Maryland, USA
Distance from station: WSW 40mi, 65km
Updated: Mon, 06-Jul-2015 7:15am EDT
Overcast
Overcast
 Wind from ESE
Wind: ESE 6 mph , 9 km/h
Temperature: 73°F , 23°C
Dew Point: 70°F , 21°C
Humidity: 89%
Barometer: 30.16 inHg , 1021.3 hPa
Clouds: Overcast
Visibility: 4 miles , 6 km
Cloud details: Mostly cloudy 500 ft
Overcast 1300 ft
2015/07/06 11:15 KGAI 061115Z AUTO 12005KT 4SM BKN005 OVC013 23/21 A3016 RMK AO1
 
KTHV - York, Pennsylvania, USA
Distance from station: NNW 40mi, 65km
Updated: Mon, 06-Jul-2015 6:53am EDT
Mist, Mostly cloudy
Mist, Mostly cloudy
 Wind from E
Wind: E 3 mph , 6 km/h
Temperature: 72°F , 22°C
Dew Point: 70°F , 21°C
Humidity: 94%
Barometer: 30.13 inHg , 1020.3 hPa
Summary: Mist
Clouds: Mostly cloudy
Visibility: 5 miles , 8 km
Cloud details: Mostly cloudy 4100 ft
Mostly cloudy 4800 ft
2015/07/06 10:53 KTHV 061053Z AUTO 10003KT 5SM BR BKN041 BKN048 22/21 A3013 RMK AO2 SLP201 T02170206
KFDK - Frederick, Maryland, USA
Distance from station: W 47mi, 75km
Updated: Mon, 06-Jul-2015 6:47am EDT
Mist, Mostly cloudy
Mist, Mostly cloudy
 Wind from calm
Wind: Calm
Temperature: 72°F , 22°C
Dew Point: 72°F , 22°C
Humidity: 100%
Barometer: 30.14 inHg , 1020.7 hPa
Summary: Mist
Clouds: Mostly cloudy
Visibility: 2 1/2 miles , 2 km
Cloud details: Mostly cloudy 2900 ft
2015/07/06 10:47 KFDK 061047Z 00000KT 2 1/2SM BR BKN029 22/22 A3014
 
KESN - Easton/Newnam, Maryland, USA
Distance from station: SSE 48mi, 78km
Updated: Mon, 06-Jul-2015 6:50am EDT
Haze, Partly cloudy
Haze, Partly cloudy
 Wind from calm
Wind: Calm
Temperature: 73°F , 23°C
Dew Point: 73°F , 23°C
Humidity: 100%
Barometer: 30.16 inHg , 1021.3 hPa
Summary: Haze
Clouds: Partly cloudy
Visibility: 5 miles , 8 km
Cloud details: Partly cloudy 3000 ft
2015/07/06 10:50 KESN 061050Z 00000KT 5SM HZ SCT030 23/23 A3016
KDCA - Washington/Natl, Washington D.c., USA
Distance from station: SW 49mi, 79km
Updated: Mon, 06-Jul-2015 7:08am EDT
Overcast
Overcast
 Wind from SE
Wind: SE 7 mph , 11 km/h
Temperature: 77°F , 25°C
Dew Point: 72°F , 22°C
Humidity: 83%
Barometer: 30.11 inHg , 1019.6 hPa
Clouds: Overcast
Visibility: 10 miles , 16 km
Cloud details: Mostly cloudy 2100 ft
Mostly cloudy 3200 ft
Overcast 14000 ft
2015/07/06 11:08 KDCA 061108Z 13006KT 10SM BKN021 BKN032 OVC140 25/22 A3011 RMK AO2
 
KLNS - Lancaster, Pennsylvania, USA
Distance from station: N 49mi, 79km
Updated: Mon, 06-Jul-2015 6:53am EDT
Mist, Partly cloudy
Mist, Partly cloudy
 Wind from calm
Wind: Calm
Temperature: 70°F , 21°C
Dew Point: 66°F , 19°C
Humidity: 88%
Barometer: 30.14 inHg , 1020.7 hPa
Summary: Mist
Clouds: Partly cloudy
Visibility: 4 miles , 6 km
Cloud details: Partly cloudy 900 ft
2015/07/06 10:53 KLNS 061053Z 00000KT 4SM BR SCT009 21/19 A3014 RMK AO2 SLP203 T02060194
KILG - Wilmington, Delaware, USA
Distance from station: ENE 50mi, 81km
Updated: Mon, 06-Jul-2015 6:51am EDT
Mist, Mostly cloudy
Mist, Mostly cloudy
 Wind from E
Wind: E 7 mph , 11 km/h
Temperature: 72°F , 22°C
Dew Point: 70°F , 21°C
Humidity: 94%
Barometer: 30.14 inHg , 1020.7 hPa
Summary: Mist
Clouds: Mostly cloudy
Visibility: 6 miles , 10 km
Cloud details: Partly cloudy 1000 ft
Mostly cloudy 11000 ft
2015/07/06 10:51 KILG 061051Z 08006KT 6SM BR SCT010 BKN110 22/21 A3014 RMK AO2 SLP206 T02220211